Weather reports worldwide

Advertisment
Bramham, United Kingdom (99077): temperature & dewpoint: 23.09.2020 02:00:00 - 29.09.2020 02:00:00 (BST)Bramham, United Kingdom (99077): wind speed & gusts: 23.09.2020 02:00:00 - 29.09.2020 02:00:00 (BST)Bramham, United Kingdom (99077): wind direction: 23.09.2020 02:00:00 - 29.09.2020 02:00:00 (BST)Bramham, United Kingdom (99077): precipitation: 23.09.2020 02:00:00 - 29.09.2020 02:00:00 (BST)
Date & Time tt [°C] td [°C] ff [km/h] ff [kn] fx [km/h] fx [kn] dd rr [mm]
29.09.2020 02:00:00 12,0 10,7 9 5 - - NW 0,0
29.09.2020 01:00:00 12,6 11,2 9 5 - - NW 0,0
29.09.2020 00:00:00 12,2 11,2 8 4 - - WNW 0,0
28.09.2020 23:00:00 13,2 12,2 11 6 - - W 0,0
28.09.2020 22:00:00 13,3 12,4 11 6 - - W 0,0
28.09.2020 21:00:00 13,5 12,4 9 5 - - W 0,0
28.09.2020 20:00:00 14,4 12,6 9 5 - - W 0,0
28.09.2020 19:00:00 15,3 12,1 4 2 - - W 0,0
28.09.2020 18:00:00 16,2 12,1 4 2 - - WNW 0,0
28.09.2020 17:00:00 16,8 11,8 11 6 - - WNW 0,0
28.09.2020 16:00:00 16,2 11,6 8 4 - - WNW 0,0
28.09.2020 15:00:00 15,6 11,4 11 6 - - W 0,0
28.09.2020 14:00:00 14,6 10,2 13 7 - - W 0,0
28.09.2020 13:00:00 13,3 9,2 11 6 - - W 0,0
28.09.2020 12:00:00 13,1 8,6 18 10 - - W -
28.09.2020 11:00:00 11,1 8,2 16 9 - - W 0,0
28.09.2020 10:00:00 9,1 7,2 8 4 - - WSW 0,0
28.09.2020 09:00:00 7,5 6,0 8 4 - - WSW 0,0
28.09.2020 08:00:00 5,2 4,7 8 4 - - W 0,0
28.09.2020 07:00:00 4,0 3,2 9 5 - - W 0,0
28.09.2020 06:00:00 4,2 3,1 11 6 - - W -
28.09.2020 05:00:00 4,8 3,5 15 8 - - W 0,0
28.09.2020 04:00:00 5,3 4,0 15 8 - - W 0,0
28.09.2020 03:00:00 5,4 4,4 11 6 - - W 0,0
28.09.2020 02:00:00 5,6 5,0 11 6 - - W 0,0
28.09.2020 01:00:00 5,6 5,0 9 5 - - W 0,0
28.09.2020 00:00:00 5,9 5,2 9 5 - - W 0,0
27.09.2020 23:00:00 6,2 5,4 9 5 - - W 0,0
27.09.2020 22:00:00 5,9 5,0 9 5 - - W 0,0
27.09.2020 21:00:00 6,4 5,6 8 4 - - WNW 0,0
27.09.2020 20:00:00 7,1 5,3 4 2 - - NW 0,0
27.09.2020 19:00:00 8,9 6,4 11 6 - - N 0,0
27.09.2020 18:00:00 11,0 6,2 15 8 - - N 0,0
27.09.2020 17:00:00 10,9 6,7 18 10 - - NW 0,0
27.09.2020 16:00:00 11,0 6,8 18 10 - - NNW 0,0
27.09.2020 15:00:00 10,8 6,7 21 11 - - NNW 0,0
27.09.2020 14:00:00 10,8 6,7 22 12 - - NNW 0,0
27.09.2020 13:00:00 10,7 6,9 22 12 - - NNW 0,0
27.09.2020 12:00:00 10,4 6,2 26 14 - - N 0,0
27.09.2020 11:00:00 10,3 6,1 28 15 - - NNW 0,0
27.09.2020 10:00:00 9,9 5,6 31 17 - - NNW 0,0
27.09.2020 09:00:00 9,7 5,5 29 16 - - NNW 0,0
27.09.2020 08:00:00 9,2 5,3 26 14 - - NNW 0,0
27.09.2020 07:00:00 9,1 5,2 24 13 - - NNW 0,0
27.09.2020 06:00:00 9,2 5,2 26 14 - - NW 0,0
27.09.2020 05:00:00 9,2 5,2 24 13 - - NNW 0,0
27.09.2020 04:00:00 9,2 5,3 26 14 - - NNW 0,0
27.09.2020 03:00:00 9,3 5,4 28 15 - - NNW 0,0
27.09.2020 02:00:00 9,5 5,3 28 15 - - NNW 0,0
27.09.2020 01:00:00 9,7 5,4 26 14 - - NNW 0,0
27.09.2020 00:00:00 9,9 5,3 26 14 - - NNW 0,0
26.09.2020 23:00:00 9,8 5,7 28 15 50 27 NNW 0,0
26.09.2020 22:00:00 10,0 5,5 22 12 - - NNW 0,0
26.09.2020 21:00:00 9,9 6,1 26 14 52 28 NNW 0,0
26.09.2020 20:00:00 10,3 5,7 28 15 54 29 NNW 0,0
26.09.2020 19:00:00 10,2 6,1 35 19 59 32 NNW 0,0
26.09.2020 18:00:00 10,7 6,5 37 20 61 33 NNW 0,0
26.09.2020 17:00:00 11,8 6,4 34 18 55 30 N 0,0
26.09.2020 16:00:00 12,4 6,3 35 19 55 30 N 0,0
26.09.2020 15:00:00 11,6 7,1 34 18 63 34 NNW 0,0
26.09.2020 14:00:00 11,9 6,8 37 20 57 31 NNW 0,0
26.09.2020 13:00:00 11,3 6,1 34 18 57 31 NNW 0,0
26.09.2020 12:00:00 11,8 6,0 41 22 57 31 NNW 0,0
26.09.2020 11:00:00 10,2 4,9 34 18 54 29 NNW 0,0
26.09.2020 10:00:00 8,8 3,6 31 17 48 26 NW 0,0
26.09.2020 09:00:00 8,1 2,7 31 17 46 25 NW 0,0
26.09.2020 08:00:00 7,1 2,1 24 13 - - NW 0,0
26.09.2020 07:00:00 6,4 1,6 21 11 - - WNW 0,0
26.09.2020 06:00:00 5,7 1,1 22 12 - - WNW 0,0
26.09.2020 05:00:00 5,8 1,0 22 12 - - WNW 0,0
26.09.2020 04:00:00 5,8 1,0 21 11 - - WNW 0,0
26.09.2020 03:00:00 6,8 1,2 28 15 46 25 NW 0,0
26.09.2020 02:00:00 7,3 1,8 26 14 - - WNW 0,0
26.09.2020 01:00:00 7,8 2,0 26 14 46 25 NW 0,0
26.09.2020 00:00:00 8,1 2,3 28 15 48 26 NW 0,0
25.09.2020 23:00:00 8,6 2,3 31 17 52 28 NW 0,0
25.09.2020 22:00:00 9,3 2,8 28 15 48 26 NW 0,0
25.09.2020 21:00:00 9,8 3,6 28 15 50 27 NW 0,0
25.09.2020 20:00:00 10,5 4,4 29 16 52 28 NW 0,0
25.09.2020 19:00:00 10,7 5,8 35 19 54 29 NW 0,0
25.09.2020 18:00:00 11,1 6,5 37 20 67 36 NNW 0,0
25.09.2020 17:00:00 13,4 4,6 37 20 68 37 NNW 0,0
25.09.2020 16:00:00 13,7 3,1 46 25 70 38 NW 0,0
25.09.2020 15:00:00 13,3 4,1 41 22 74 40 NNW 0,0
25.09.2020 14:00:00 12,9 4,1 50 27 74 40 NNW -
25.09.2020 13:00:00 11,6 4,9 42 23 67 36 NW 0,0
25.09.2020 12:00:00 11,0 5,0 48 26 70 38 NNW 0,0
25.09.2020 11:00:00 10,3 5,7 42 23 67 36 NNW 0,0
25.09.2020 10:00:00 9,9 5,5 42 23 65 35 NNW 0,0
25.09.2020 09:00:00 8,8 5,6 35 19 57 31 NW 0,0
25.09.2020 08:00:00 7,6 5,8 29 16 52 28 NW 0,2
25.09.2020 07:00:00 7,9 5,0 29 16 52 28 NW 0,0
25.09.2020 06:00:00 8,0 5,2 31 17 52 28 NW 0,0
25.09.2020 05:00:00 7,7 5,4 29 16 46 25 NW 0,0
25.09.2020 04:00:00 7,7 5,8 29 16 - - NW 0,0
25.09.2020 03:00:00 7,8 6,4 31 17 - - NW 0,0
25.09.2020 02:00:00 7,8 7,1 24 13 - - NW 0,0
25.09.2020 01:00:00 8,2 7,6 24 13 - - NW 0,0
25.09.2020 00:00:00 8,1 7,7 16 9 - - NW 0,0
24.09.2020 23:00:00 8,1 7,8 13 7 - - NW 0,8
24.09.2020 22:00:00 7,5 6,5 11 6 - - WNW 0,8
24.09.2020 21:00:00 7,3 6,0 22 12 - - NW 0,2
24.09.2020 20:00:00 7,3 6,0 22 12 - - NW 2,0
24.09.2020 19:00:00 8,8 6,3 13 7 - - WNW 0,0
24.09.2020 18:00:00 9,9 7,4 13 7 - - NE 0,0
24.09.2020 17:00:00 11,6 9,2 13 7 - - NE 0,0
24.09.2020 16:00:00 10,7 8,4 13 7 - - NNE 0,0
24.09.2020 15:00:00 8,2 7,3 8 4 - - NNW 10,2
24.09.2020 14:00:00 10,3 8,7 8 4 - - NNE 0,0
24.09.2020 13:00:00 10,1 8,6 8 4 - - ENE 0,0
24.09.2020 12:00:00 8,9 8,6 9 5 - - ENE 0,2
24.09.2020 11:00:00 8,2 8,1 9 5 - - ENE 0,2
24.09.2020 10:00:00 7,8 7,8 11 6 - - ENE 1,8
24.09.2020 09:00:00 7,1 7,0 11 6 - - SE 1,6
24.09.2020 08:00:00 6,9 6,9 9 5 - - ESE 0,0
24.09.2020 07:00:00 6,6 6,5 8 4 - - SE 0,0
24.09.2020 06:00:00 6,6 6,4 4 2 - - ESE 0,0
24.09.2020 05:00:00 6,2 5,7 2 1 - - S 0,0
24.09.2020 04:00:00 6,6 6,2 9 5 - - SSW 0,0
24.09.2020 03:00:00 7,3 6,6 9 5 - - SSW 0,0
24.09.2020 02:00:00 7,8 6,9 8 4 - - W 0,0
24.09.2020 01:00:00 8,3 7,7 13 7 - - WNW 0,2
24.09.2020 00:00:00 8,4 7,9 13 7 - - WNW 0,8
23.09.2020 23:00:00 8,9 8,2 22 12 - - W 1,6
23.09.2020 22:00:00 9,2 8,7 13 7 - - WNW 0,2
23.09.2020 21:00:00 9,5 9,1 11 6 - - WNW 0,0
23.09.2020 20:00:00 9,7 9,4 13 7 - - NW 0,2
23.09.2020 19:00:00 9,8 9,6 16 9 - - NNW 0,2
23.09.2020 18:00:00 10,1 9,8 24 13 - - NW 1,0
23.09.2020 17:00:00 10,4 10,1 22 12 - - NW 0,4
23.09.2020 16:00:00 11,1 10,8 22 12 - - NW 0,6
23.09.2020 15:00:00 11,6 11,3 15 8 - - NW 0,0
23.09.2020 14:00:00 11,6 11,3 16 9 - - NNW 0,2
23.09.2020 13:00:00 11,4 11,2 15 8 - - NNW 0,6
23.09.2020 12:00:00 11,1 10,8 16 9 - - NW 1,6
23.09.2020 11:00:00 11,5 11,2 16 9 - - N 0,4
23.09.2020 10:00:00 11,7 11,5 16 9 - - NW 2,0
23.09.2020 09:00:00 11,7 11,1 18 10 - - NW 1,2
23.09.2020 08:00:00 13,8 13,2 9 5 - - S 0,2
23.09.2020 07:00:00 13,4 12,3 5 3 - - SE 0,0
23.09.2020 06:00:00 13,7 12,2 2 1 - - S 0,0
23.09.2020 05:00:00 13,6 11,9 5 3 - - SSW 0,0
23.09.2020 04:00:00 14,1 12,2 8 4 - - SSW 0,0
23.09.2020 03:00:00 14,4 12,1 11 6 - - S 0,0
23.09.2020 02:00:00 15,4 12,5 21 11 - - SSW 0,0

tt = temperature
td = dewpoint
ff = wind speed
fx = gusts
dd = wind direction
rr = precipitation

Next stations